INFORMACIÓN METAR y TAF
METAR FOR HECA
ADDS - METARS form results

(2136 UTC 02 June 2020)
Data provider http://aviationweather.gov/metar/data/
 
METAR text: HECA 022130Z 36008KT CAVOK 23/14 Q1012 NOSIG
Conditions at: HECA (CAIRO INTL AIRPO, EG) observed 2130 UTC 02 June 2020
Temperature: 23.0°C (73°F)
Dewpoint: 14.0°C (57°F) [RH = 57%]
Pressure (altimeter): 29.88 inches Hg (1012.0 mb)
Winds: from the N (360 degrees) at 9 MPH (8 knots; 4.1 m/s)
Visibility: 6 or more miles (10+ km)
Ceiling: ceiling and visibility are OK
Clouds: unknown
Weather: no significant weather observed at this time

METAR text: HECA 022100Z 36010KT CAVOK 23/14 Q1012 NOSIG
Conditions at: HECA (CAIRO INTL AIRPO, EG) observed 2100 UTC 02 June 2020
Temperature: 23.0°C (73°F)
Dewpoint: 14.0°C (57°F) [RH = 57%]
Pressure (altimeter): 29.88 inches Hg (1012.0 mb)
Winds: from the N (360 degrees) at 12 MPH (10 knots; 5.1 m/s)
Visibility: 6 or more miles (10+ km)
Ceiling: ceiling and visibility are OK
Clouds: unknown
Weather: no significant weather observed at this time

Forecast for: HECA (CAIRO INTL AIRPO, EG)
Text: TAF HECA 021700Z 0218/0324 29015KT CAVOK
Forecast period: 1800 UTC 02 June 2020 to 0000 UTC 04 June 2020
Forecast type: FROM: standard forecast or significant change
Winds: from the WNW (290 degrees) at 17 MPH (15 knots; 7.7 m/s)
Visibility: 6 or more miles 10+ km)
Ceiling: unknown
Clouds: missing
Weather: NSW  (no significant weather)

MAPA DE AEROPUERTO

INFORMACIÓN DE PISTA
Pista 05C Longitud 13120 ft Ancho 197 ft
Elevación 382 ft Umbral desplazado 0 ft Rumbo de pista 45
Pista 23C Longitud 13120 ft Ancho 197 ft
Elevación 0 ft Umbral desplazado 0 ft Rumbo de pista 225
Pista 05L Longitud 10830 ft Ancho 197 ft
Elevación 190 ft Umbral desplazado 0 ft Rumbo de pista 49
Pista 23R Longitud 10830 ft Ancho 197 ft
Elevación 199 ft Umbral desplazado 0 ft Rumbo de pista 229
Pista 05R Longitud 13124 ft Ancho 197 ft
Elevación 382 ft Umbral desplazado 0 ft Rumbo de pista 49
Pista 23L Longitud 13124 ft Ancho 197 ft
Elevación 375 ft Umbral desplazado 0 ft Rumbo de pista 229

FRECUANCIAS DEL AEROPUERTO
Tipo APP Nombre APP Frecuencia 119.05 MHZ
Tipo ATIS Nombre ATIS Frecuencia 122.6 MHZ
Tipo GND Nombre GND Frecuencia 121.9 MHZ
Tipo MISC Nombre VOLMET Frecuencia 126.2 MHZ
Tipo PFLT Nombre PREFLIGHT Frecuencia 120.1 MHZ
Tipo rdo Nombre cairo radi Frecuencia 11.3 MHZ
Tipo TWR Nombre TWR Frecuencia 118.1 MHZ
Tipo Volmet Nombre Frecuencia 124.6 MHZ

RADIO AYUDAS DEL AEROPUERTO
Tipo NDB Nombre Cairo Frecuencia 310 KHZ
Tipo VOR-DME Nombre Cairo Frecuencia 112500 KHZ
Tipo VOR-DME Nombre Cairo Frecuencia 115200 KHZ
Tipo NDB Nombre Cairo Frecuencia 317 KHZ